sensor_id;sensor_type;location;lat;lon;timestamp;pressure;altitude;pressure_sealevel;temperature;humidity
14269;BME280;7218;51.480;7.006;2022-08-04T00:02:01;100607.84;;;26.81;70.81
14269;BME280;7218;51.480;7.006;2022-08-04T00:04:32;100603.09;;;26.84;71.32
14269;BME280;7218;51.480;7.006;2022-08-04T00:07:07;100591.91;;;26.90;69.56
14269;BME280;7218;51.480;7.006;2022-08-04T00:09:43;100602.03;;;26.87;70.50
14269;BME280;7218;51.480;7.006;2022-08-04T00:12:15;100602.00;;;26.98;69.59
14269;BME280;7218;51.480;7.006;2022-08-04T00:14:46;100598.81;;;27.04;69.61
14269;BME280;7218;51.480;7.006;2022-08-04T00:17:13;100591.88;;;27.02;70.11
14269;BME280;7218;51.480;7.006;2022-08-04T00:19:43;100599.06;;;27.01;70.36
14269;BME280;7218;51.480;7.006;2022-08-04T00:22:10;100591.69;;;26.93;70.22
14269;BME280;7218;51.480;7.006;2022-08-04T00:24:40;100594.47;;;26.92;69.41
14269;BME280;7218;51.480;7.006;2022-08-04T00:27:07;100590.94;;;26.91;68.45
14269;BME280;7218;51.480;7.006;2022-08-04T00:29:34;100589.97;;;26.92;68.53
14269;BME280;7218;51.480;7.006;2022-08-04T00:32:03;100590.72;;;26.94;68.12
14269;BME280;7218;51.480;7.006;2022-08-04T00:34:32;100591.53;;;26.95;68.20
14269;BME280;7218;51.480;7.006;2022-08-04T00:36:59;100602.38;;;26.93;68.54
14269;BME280;7218;51.480;7.006;2022-08-04T00:39:26;100591.06;;;26.90;69.49
14269;BME280;7218;51.480;7.006;2022-08-04T00:42:16;100592.06;;;26.89;68.73
14269;BME280;7218;51.480;7.006;2022-08-04T00:44:56;100583.88;;;26.90;68.96
14269;BME280;7218;51.480;7.006;2022-08-04T00:47:38;100583.63;;;26.82;68.82
14269;BME280;7218;51.480;7.006;2022-08-04T00:50:08;100590.09;;;26.80;68.89
14269;BME280;7218;51.480;7.006;2022-08-04T00:52:43;100584.00;;;26.78;68.84
14269;BME280;7218;51.480;7.006;2022-08-04T00:55:24;100580.41;;;26.68;68.79
14269;BME280;7218;51.480;7.006;2022-08-04T01:00:47;100586.88;;;26.54;71.23
14269;BME280;7218;51.480;7.006;2022-08-04T01:03:29;100584.94;;;26.45;71.15
14269;BME280;7218;51.480;7.006;2022-08-04T01:06:05;100579.69;;;26.21;72.62
14269;BME280;7218;51.480;7.006;2022-08-04T01:08:53;100580.19;;;26.15;73.29
14269;BME280;7218;51.480;7.006;2022-08-04T01:11:43;100575.56;;;26.17;74.12
14269;BME280;7218;51.480;7.006;2022-08-04T01:14:28;100565.38;;;26.22;73.25
14269;BME280;7218;51.480;7.006;2022-08-04T01:17:06;100565.81;;;26.16;74.12
14269;BME280;7218;51.480;7.006;2022-08-04T01:19:52;100565.72;;;26.18;74.26
14269;BME280;7218;51.480;7.006;2022-08-04T01:22:32;100570.69;;;26.11;74.34
14269;BME280;7218;51.480;7.006;2022-08-04T01:25:22;100569.72;;;26.12;75.30
14269;BME280;7218;51.480;7.006;2022-08-04T01:28:12;100558.81;;;26.15;75.25
14269;BME280;7218;51.480;7.006;2022-08-04T01:30:44;100552.22;;;26.08;75.10
14269;BME280;7218;51.480;7.006;2022-08-04T01:33:12;100553.94;;;26.09;75.48
14269;BME280;7218;51.480;7.006;2022-08-04T01:35:46;100545.66;;;26.12;74.29
14269;BME280;7218;51.480;7.006;2022-08-04T01:38:16;100550.16;;;26.11;74.05
14269;BME280;7218;51.480;7.006;2022-08-04T01:40:45;100539.72;;;26.08;73.22
14269;BME280;7218;51.480;7.006;2022-08-04T01:43:13;100547.38;;;26.13;73.07
14269;BME280;7218;51.480;7.006;2022-08-04T01:45:41;100538.75;;;25.98;74.52
14269;BME280;7218;51.480;7.006;2022-08-04T01:48:10;100535.94;;;25.89;74.87
14269;BME280;7218;51.480;7.006;2022-08-04T01:50:38;100535.69;;;25.92;75.04
14269;BME280;7218;51.480;7.006;2022-08-04T01:53:07;100528.53;;;25.92;74.75
14269;BME280;7218;51.480;7.006;2022-08-04T01:55:33;100524.78;;;25.84;75.40
14269;BME280;7218;51.480;7.006;2022-08-04T01:58:01;100525.84;;;25.81;76.26
14269;BME280;7218;51.480;7.006;2022-08-04T02:00:30;100518.19;;;25.77;76.45
14269;BME280;7218;51.480;7.006;2022-08-04T02:02:58;100521.25;;;25.72;76.54
14269;BME280;7218;51.480;7.006;2022-08-04T02:05:26;100514.81;;;25.75;76.00
14269;BME280;7218;51.480;7.006;2022-08-04T02:08:04;100507.50;;;25.77;76.04
14269;BME280;7218;51.480;7.006;2022-08-04T02:10:49;100512.16;;;25.75;75.89
14269;BME280;7218;51.480;7.006;2022-08-04T02:13:24;100513.72;;;25.77;75.12
14269;BME280;7218;51.480;7.006;2022-08-04T02:16:00;100513.34;;;25.70;76.60
14269;BME280;7218;51.480;7.006;2022-08-04T02:18:31;100511.41;;;25.73;75.68
14269;BME280;7218;51.480;7.006;2022-08-04T02:21:00;100505.81;;;25.64;76.34
14269;BME280;7218;51.480;7.006;2022-08-04T02:23:30;100509.06;;;25.57;76.14
14269;BME280;7218;51.480;7.006;2022-08-04T02:26:02;100512.44;;;25.48;76.69
14269;BME280;7218;51.480;7.006;2022-08-04T02:28:32;100513.03;;;25.51;77.72
14269;BME280;7218;51.480;7.006;2022-08-04T02:31:12;100502.25;;;25.53;76.71
14269;BME280;7218;51.480;7.006;2022-08-04T02:33:43;100507.56;;;25.42;77.45
14269;BME280;7218;51.480;7.006;2022-08-04T02:36:15;100503.78;;;25.33;77.98
14269;BME280;7218;51.480;7.006;2022-08-04T02:38:54;100499.06;;;25.37;77.77
14269;BME280;7218;51.480;7.006;2022-08-04T02:41:23;100497.00;;;25.29;78.69
14269;BME280;7218;51.480;7.006;2022-08-04T02:43:51;100491.41;;;25.32;77.83
14269;BME280;7218;51.480;7.006;2022-08-04T02:46:21;100492.72;;;25.26;78.29
14269;BME280;7218;51.480;7.006;2022-08-04T02:48:50;100493.81;;;25.24;78.17
14269;BME280;7218;51.480;7.006;2022-08-04T02:51:21;100486.53;;;25.15;78.59
14269;BME280;7218;51.480;7.006;2022-08-04T02:53:49;100492.34;;;25.09;78.86
14269;BME280;7218;51.480;7.006;2022-08-04T02:56:18;100480.84;;;25.19;78.59
14269;BME280;7218;51.480;7.006;2022-08-04T02:58:48;100482.03;;;25.15;79.92
14269;BME280;7218;51.480;7.006;2022-08-04T03:01:16;100476.41;;;25.07;80.33
14269;BME280;7218;51.480;7.006;2022-08-04T03:03:50;100476.53;;;25.06;80.80
14269;BME280;7218;51.480;7.006;2022-08-04T03:06:42;100472.78;;;25.08;80.18
14269;BME280;7218;51.480;7.006;2022-08-04T03:12:44;100466.56;;;24.97;80.75
14269;BME280;7218;51.480;7.006;2022-08-04T03:15:31;100474.31;;;24.89;81.16
14269;BME280;7218;51.480;7.006;2022-08-04T03:18:20;100475.19;;;24.76;81.99
14269;BME280;7218;51.480;7.006;2022-08-04T03:21:14;100474.81;;;24.70;82.43
14269;BME280;7218;51.480;7.006;2022-08-04T03:24:07;100465.81;;;24.71;82.75
14269;BME280;7218;51.480;7.006;2022-08-04T03:27:03;100471.41;;;24.68;82.79
14269;BME280;7218;51.480;7.006;2022-08-04T03:30:01;100465.09;;;24.69;82.34
14269;BME280;7218;51.480;7.006;2022-08-04T03:35:39;100468.72;;;24.68;81.38
14269;BME280;7218;51.480;7.006;2022-08-04T03:38:24;100468.47;;;24.60;82.48
14269;BME280;7218;51.480;7.006;2022-08-04T03:41:14;100465.41;;;24.53;83.74
14269;BME280;7218;51.480;7.006;2022-08-04T03:47:29;100460.81;;;24.55;83.37
14269;BME280;7218;51.480;7.006;2022-08-04T03:50:21;100458.09;;;24.44;83.12
14269;BME280;7218;51.480;7.006;2022-08-04T03:53:12;100454.22;;;24.48;83.77
14269;BME280;7218;51.480;7.006;2022-08-04T03:55:59;100453.94;;;24.64;82.92
14269;BME280;7218;51.480;7.006;2022-08-04T03:58:54;100463.69;;;24.52;84.15
14269;BME280;7218;51.480;7.006;2022-08-04T04:01:52;100447.53;;;24.42;84.11
14269;BME280;7218;51.480;7.006;2022-08-04T04:04:45;100450.28;;;24.41;84.02
14269;BME280;7218;51.480;7.006;2022-08-04T04:07:37;100454.16;;;24.37;84.90
14269;BME280;7218;51.480;7.006;2022-08-04T04:10:32;100449.47;;;24.40;85.07
14269;BME280;7218;51.480;7.006;2022-08-04T04:13:17;100457.91;;;24.34;85.14
14269;BME280;7218;51.480;7.006;2022-08-04T04:15:55;100454.28;;;24.35;84.88
14269;BME280;7218;51.480;7.006;2022-08-04T04:18:49;100465.06;;;24.34;85.09
14269;BME280;7218;51.480;7.006;2022-08-04T04:21:29;100457.94;;;24.22;84.84
14269;BME280;7218;51.480;7.006;2022-08-04T04:24:09;100449.84;;;24.23;85.03
14269;BME280;7218;51.480;7.006;2022-08-04T04:26:54;100458.97;;;24.32;84.85
14269;BME280;7218;51.480;7.006;2022-08-04T04:29:46;100457.78;;;24.36;85.33
14269;BME280;7218;51.480;7.006;2022-08-04T04:32:22;100458.19;;;24.19;85.55
14269;BME280;7218;51.480;7.006;2022-08-04T04:35:07;100462.31;;;24.23;85.82
14269;BME280;7218;51.480;7.006;2022-08-04T04:37:47;100455.28;;;24.22;86.25
14269;BME280;7218;51.480;7.006;2022-08-04T04:40:27;100456.66;;;24.27;85.79
14269;BME280;7218;51.480;7.006;2022-08-04T04:43:36;100460.56;;;24.34;85.14
14269;BME280;7218;51.480;7.006;2022-08-04T04:46:15;100460.16;;;24.28;86.12
14269;BME280;7218;51.480;7.006;2022-08-04T04:48:51;100468.34;;;24.37;86.57
14269;BME280;7218;51.480;7.006;2022-08-04T04:51:25;100454.47;;;24.45;86.39
14269;BME280;7218;51.480;7.006;2022-08-04T04:53:58;100457.84;;;24.47;86.44
14269;BME280;7218;51.480;7.006;2022-08-04T04:56:30;100456.66;;;24.51;86.14
14269;BME280;7218;51.480;7.006;2022-08-04T04:59:02;100460.50;;;24.47;85.59
14269;BME280;7218;51.480;7.006;2022-08-04T05:01:50;100463.25;;;24.58;85.60
14269;BME280;7218;51.480;7.006;2022-08-04T05:04:47;100457.22;;;24.67;85.57
14269;BME280;7218;51.480;7.006;2022-08-04T05:07:38;100462.00;;;24.86;84.22
14269;BME280;7218;51.480;7.006;2022-08-04T05:10:21;100465.53;;;24.86;84.75
14269;BME280;7218;51.480;7.006;2022-08-04T05:13:05;100456.38;;;24.91;84.71
14269;BME280;7218;51.480;7.006;2022-08-04T05:15:36;100459.53;;;24.96;83.96
14269;BME280;7218;51.480;7.006;2022-08-04T05:18:13;100457.34;;;25.01;83.32
14269;BME280;7218;51.480;7.006;2022-08-04T05:20:44;100452.00;;;25.01;82.98
14269;BME280;7218;51.480;7.006;2022-08-04T05:23:15;100462.22;;;25.07;83.83
14269;BME280;7218;51.480;7.006;2022-08-04T05:25:46;100457.41;;;25.23;83.55
14269;BME280;7218;51.480;7.006;2022-08-04T05:28:16;100459.38;;;25.32;83.23
14269;BME280;7218;51.480;7.006;2022-08-04T05:30:46;100459.66;;;25.40;83.26
14269;BME280;7218;51.480;7.006;2022-08-04T05:33:20;100457.09;;;25.50;83.00
14269;BME280;7218;51.480;7.006;2022-08-04T05:35:49;100459.41;;;25.54;81.19
14269;BME280;7218;51.480;7.006;2022-08-04T05:38:19;100465.41;;;25.69;81.21
14269;BME280;7218;51.480;7.006;2022-08-04T05:40:48;100463.81;;;25.89;79.97
14269;BME280;7218;51.480;7.006;2022-08-04T05:43:15;100462.81;;;26.01;79.61
14269;BME280;7218;51.480;7.006;2022-08-04T05:45:44;100463.53;;;26.14;79.13
14269;BME280;7218;51.480;7.006;2022-08-04T05:48:13;100455.13;;;26.19;78.95
14269;BME280;7218;51.480;7.006;2022-08-04T05:50:41;100456.22;;;26.38;77.81
14269;BME280;7218;51.480;7.006;2022-08-04T05:53:09;100459.97;;;26.36;77.73
14269;BME280;7218;51.480;7.006;2022-08-04T05:55:36;100464.94;;;26.40;76.66
14269;BME280;7218;51.480;7.006;2022-08-04T05:58:05;100462.53;;;26.37;76.64
14269;BME280;7218;51.480;7.006;2022-08-04T06:00:34;100460.59;;;26.39;76.52
14269;BME280;7218;51.480;7.006;2022-08-04T06:03:01;100453.63;;;26.48;76.07
14269;BME280;7218;51.480;7.006;2022-08-04T06:05:29;100460.22;;;26.44;76.03
14269;BME280;7218;51.480;7.006;2022-08-04T06:07:58;100462.03;;;26.43;76.81
14269;BME280;7218;51.480;7.006;2022-08-04T06:10:25;100464.78;;;26.53;76.39
14269;BME280;7218;51.480;7.006;2022-08-04T06:12:59;100454.94;;;26.53;76.85
14269;BME280;7218;51.480;7.006;2022-08-04T06:15:27;100457.81;;;26.62;76.41
14269;BME280;7218;51.480;7.006;2022-08-04T06:17:57;100449.28;;;26.68;76.26
14269;BME280;7218;51.480;7.006;2022-08-04T06:20:29;100458.16;;;26.68;77.54
14269;BME280;7218;51.480;7.006;2022-08-04T06:23:00;100458.88;;;26.70;77.27
14269;BME280;7218;51.480;7.006;2022-08-04T06:25:30;100453.75;;;26.78;75.82
14269;BME280;7218;51.480;7.006;2022-08-04T06:27:58;100446.97;;;26.74;74.93
14269;BME280;7218;51.480;7.006;2022-08-04T06:30:27;100449.19;;;26.69;75.55
14269;BME280;7218;51.480;7.006;2022-08-04T06:32:57;100449.38;;;26.77;75.23
14269;BME280;7218;51.480;7.006;2022-08-04T06:35:28;100440.81;;;26.94;74.03
14269;BME280;7218;51.480;7.006;2022-08-04T06:37:56;100447.91;;;27.05;75.54
14269;BME280;7218;51.480;7.006;2022-08-04T06:40:26;100448.22;;;27.32;73.62
14269;BME280;7218;51.480;7.006;2022-08-04T06:42:54;100452.53;;;27.45;74.21
14269;BME280;7218;51.480;7.006;2022-08-04T06:45:21;100456.97;;;27.55;72.47
14269;BME280;7218;51.480;7.006;2022-08-04T06:47:49;100456.63;;;27.69;71.06
14269;BME280;7218;51.480;7.006;2022-08-04T06:50:17;100452.41;;;27.76;71.33
14269;BME280;7218;51.480;7.006;2022-08-04T06:52:44;100458.25;;;27.91;71.46
14269;BME280;7218;51.480;7.006;2022-08-04T06:55:11;100449.66;;;27.97;66.35
14269;BME280;7218;51.480;7.006;2022-08-04T06:57:40;100450.59;;;28.17;62.80
14269;BME280;7218;51.480;7.006;2022-08-04T07:00:10;100443.31;;;28.48;62.52
14269;BME280;7218;51.480;7.006;2022-08-04T07:02:42;100443.00;;;28.51;55.23
14269;BME280;7218;51.480;7.006;2022-08-04T07:05:09;100432.72;;;28.75;55.46
14269;BME280;7218;51.480;7.006;2022-08-04T07:07:37;100439.94;;;28.94;52.57
14269;BME280;7218;51.480;7.006;2022-08-04T07:10:05;100440.50;;;28.88;50.01
14269;BME280;7218;51.480;7.006;2022-08-04T07:12:33;100439.56;;;29.26;48.97
14269;BME280;7218;51.480;7.006;2022-08-04T07:15:02;100441.16;;;29.38;48.14
14269;BME280;7218;51.480;7.006;2022-08-04T07:17:29;100442.06;;;29.56;48.02
14269;BME280;7218;51.480;7.006;2022-08-04T07:19:56;100437.41;;;29.58;46.71
14269;BME280;7218;51.480;7.006;2022-08-04T07:22:24;100444.38;;;29.78;46.17
14269;BME280;7218;51.480;7.006;2022-08-04T07:24:53;100443.47;;;29.87;45.54
14269;BME280;7218;51.480;7.006;2022-08-04T07:27:21;100445.59;;;29.84;46.48
14269;BME280;7218;51.480;7.006;2022-08-04T07:29:48;100441.66;;;29.88;45.42
14269;BME280;7218;51.480;7.006;2022-08-04T07:32:18;100442.88;;;30.03;45.32
14269;BME280;7218;51.480;7.006;2022-08-04T07:34:46;100445.44;;;30.22;44.87
14269;BME280;7218;51.480;7.006;2022-08-04T07:37:14;100445.22;;;30.33;44.06
14269;BME280;7218;51.480;7.006;2022-08-04T07:39:40;100445.72;;;30.47;44.13
14269;BME280;7218;51.480;7.006;2022-08-04T07:42:07;100453.91;;;30.45;44.65
14269;BME280;7218;51.480;7.006;2022-08-04T07:44:34;100447.41;;;30.48;44.46
14269;BME280;7218;51.480;7.006;2022-08-04T07:47:03;100447.13;;;30.68;44.12
14269;BME280;7218;51.480;7.006;2022-08-04T07:49:32;100452.19;;;30.71;44.17
14269;BME280;7218;51.480;7.006;2022-08-04T07:51:59;100445.84;;;30.81;43.52
14269;BME280;7218;51.480;7.006;2022-08-04T07:54:26;100446.09;;;30.69;43.64
14269;BME280;7218;51.480;7.006;2022-08-04T07:56:54;100451.72;;;30.76;44.04
14269;BME280;7218;51.480;7.006;2022-08-04T07:59:20;100450.41;;;30.80;44.08
14269;BME280;7218;51.480;7.006;2022-08-04T08:01:47;100445.09;;;30.88;44.14
14269;BME280;7218;51.480;7.006;2022-08-04T08:04:14;100449.88;;;30.76;44.10
14269;BME280;7218;51.480;7.006;2022-08-04T08:06:43;100452.47;;;31.04;43.77
14269;BME280;7218;51.480;7.006;2022-08-04T08:09:10;100446.47;;;31.10;43.43
14269;BME280;7218;51.480;7.006;2022-08-04T08:11:37;100443.84;;;31.18;43.00
14269;BME280;7218;51.480;7.006;2022-08-04T08:14:04;100458.31;;;31.17;43.13
14269;BME280;7218;51.480;7.006;2022-08-04T08:16:33;100449.06;;;31.19;42.44
14269;BME280;7218;51.480;7.006;2022-08-04T08:19:00;100455.53;;;31.09;41.96
14269;BME280;7218;51.480;7.006;2022-08-04T08:21:26;100462.00;;;31.16;41.96
14269;BME280;7218;51.480;7.006;2022-08-04T08:23:54;100457.16;;;30.84;42.09
14269;BME280;7218;51.480;7.006;2022-08-04T08:26:21;100454.75;;;31.16;41.29
14269;BME280;7218;51.480;7.006;2022-08-04T08:28:47;100457.97;;;31.20;41.29
14269;BME280;7218;51.480;7.006;2022-08-04T08:31:14;100446.47;;;31.36;41.59
14269;BME280;7218;51.480;7.006;2022-08-04T08:33:41;100452.47;;;31.55;41.08
14269;BME280;7218;51.480;7.006;2022-08-04T08:36:14;100446.56;;;31.52;41.03
14269;BME280;7218;51.480;7.006;2022-08-04T08:38:47;100452.00;;;31.94;40.70
14269;BME280;7218;51.480;7.006;2022-08-04T08:41:37;100445.56;;;32.21;40.03
14269;BME280;7218;51.480;7.006;2022-08-04T08:44:27;100445.75;;;32.35;39.32
14269;BME280;7218;51.480;7.006;2022-08-04T08:47:07;100439.16;;;32.30;39.10
14269;BME280;7218;51.480;7.006;2022-08-04T08:49:46;100438.34;;;32.54;39.02
14269;BME280;7218;51.480;7.006;2022-08-04T08:52:35;100442.34;;;32.17;39.16
14269;BME280;7218;51.480;7.006;2022-08-04T08:55:15;100444.75;;;32.44;38.82
14269;BME280;7218;51.480;7.006;2022-08-04T08:57:58;100437.38;;;32.63;38.73
14269;BME280;7218;51.480;7.006;2022-08-04T09:00:41;100448.84;;;32.57;38.59
14269;BME280;7218;51.480;7.006;2022-08-04T09:03:26;100452.00;;;32.44;38.83
14269;BME280;7218;51.480;7.006;2022-08-04T09:06:05;100443.16;;;32.68;38.55
14269;BME280;7218;51.480;7.006;2022-08-04T09:08:55;100444.47;;;33.12;37.82
14269;BME280;7218;51.480;7.006;2022-08-04T09:11:29;100454.47;;;32.87;37.28
14269;BME280;7218;51.480;7.006;2022-08-04T09:14:04;100451.09;;;33.02;37.64
14269;BME280;7218;51.480;7.006;2022-08-04T09:16:40;100450.88;;;33.36;36.65
14269;BME280;7218;51.480;7.006;2022-08-04T09:19:11;100450.28;;;33.64;36.00
14269;BME280;7218;51.480;7.006;2022-08-04T09:21:48;100450.50;;;33.55;36.52
14269;BME280;7218;51.480;7.006;2022-08-04T09:24:21;100451.25;;;33.88;36.44
14269;BME280;7218;51.480;7.006;2022-08-04T09:26:55;100450.34;;;34.03;36.42
14269;BME280;7218;51.480;7.006;2022-08-04T09:29:32;100450.75;;;34.23;36.36
14269;BME280;7218;51.480;7.006;2022-08-04T09:32:05;100460.81;;;33.43;35.95
14269;BME280;7218;51.480;7.006;2022-08-04T09:34:42;100459.66;;;33.13;37.46
14269;BME280;7218;51.480;7.006;2022-08-04T09:37:16;100462.38;;;33.29;37.13
14269;BME280;7218;51.480;7.006;2022-08-04T09:39:55;100460.22;;;33.17;37.39
14269;BME280;7218;51.480;7.006;2022-08-04T09:42:32;100463.00;;;33.72;36.51
14269;BME280;7218;51.480;7.006;2022-08-04T09:45:09;100470.84;;;33.26;36.74
14269;BME280;7218;51.480;7.006;2022-08-04T09:47:45;100471.13;;;33.48;36.83
14269;BME280;7218;51.480;7.006;2022-08-04T09:50:25;100467.47;;;33.33;37.13
14269;BME280;7218;51.480;7.006;2022-08-04T09:53:00;100471.16;;;32.99;37.46
14269;BME280;7218;51.480;7.006;2022-08-04T09:55:45;100472.69;;;33.34;37.34
14269;BME280;7218;51.480;7.006;2022-08-04T09:58:17;100470.31;;;32.99;37.81
14269;BME280;7218;51.480;7.006;2022-08-04T10:00:58;100475.56;;;32.76;39.11
14269;BME280;7218;51.480;7.006;2022-08-04T10:03:27;100467.63;;;33.07;38.21
14269;BME280;7218;51.480;7.006;2022-08-04T10:06:07;100470.06;;;33.65;37.63
14269;BME280;7218;51.480;7.006;2022-08-04T10:08:53;100480.56;;;33.60;37.56
14269;BME280;7218;51.480;7.006;2022-08-04T10:11:32;100474.00;;;33.62;38.48
14269;BME280;7218;51.480;7.006;2022-08-04T10:14:12;100469.72;;;34.23;36.90
14269;BME280;7218;51.480;7.006;2022-08-04T10:16:52;100479.72;;;34.14;36.71
14269;BME280;7218;51.480;7.006;2022-08-04T10:19:25;100471.16;;;34.87;35.90
14269;BME280;7218;51.480;7.006;2022-08-04T10:22:00;100474.69;;;35.48;34.56
14269;BME280;7218;51.480;7.006;2022-08-04T10:24:38;100488.63;;;35.30;34.40
14269;BME280;7218;51.480;7.006;2022-08-04T10:27:11;100492.16;;;35.08;34.57
14269;BME280;7218;51.480;7.006;2022-08-04T10:29:42;100478.88;;;34.98;34.29
14269;BME280;7218;51.480;7.006;2022-08-04T10:32:17;100483.22;;;35.60;33.98
14269;BME280;7218;51.480;7.006;2022-08-04T10:35:00;100486.84;;;35.52;33.76
14269;BME280;7218;51.480;7.006;2022-08-04T10:37:33;100488.28;;;35.77;33.35
14269;BME280;7218;51.480;7.006;2022-08-04T10:40:04;100484.19;;;35.81;32.95
14269;BME280;7218;51.480;7.006;2022-08-04T10:42:57;100492.69;;;35.78;33.12
14269;BME280;7218;51.480;7.006;2022-08-04T10:45:27;100489.13;;;35.93;32.45
14269;BME280;7218;51.480;7.006;2022-08-04T10:48:05;100488.06;;;35.35;33.43
14269;BME280;7218;51.480;7.006;2022-08-04T10:50:35;100485.47;;;35.42;33.33
14269;BME280;7218;51.480;7.006;2022-08-04T10:53:06;100486.16;;;35.73;32.68
14269;BME280;7218;51.480;7.006;2022-08-04T10:55:37;100486.31;;;35.57;33.15
14269;BME280;7218;51.480;7.006;2022-08-04T10:58:08;100497.63;;;35.46;33.28
14269;BME280;7218;51.480;7.006;2022-08-04T11:00:40;100496.38;;;35.71;33.53
14269;BME280;7218;51.480;7.006;2022-08-04T11:03:16;100498.34;;;35.92;33.56
14269;BME280;7218;51.480;7.006;2022-08-04T11:05:48;100507.38;;;35.99;33.30
14269;BME280;7218;51.480;7.006;2022-08-04T11:08:17;100504.03;;;36.62;32.32
14269;BME280;7218;51.480;7.006;2022-08-04T11:10:47;100506.66;;;36.19;33.15
14269;BME280;7218;51.480;7.006;2022-08-04T11:13:17;100514.06;;;36.83;32.06
14269;BME280;7218;51.480;7.006;2022-08-04T11:15:47;100512.34;;;37.73;30.93
14269;BME280;7218;51.480;7.006;2022-08-04T11:18:22;100511.31;;;38.09;31.19
14269;BME280;7218;51.480;7.006;2022-08-04T11:20:55;100512.50;;;38.41;30.35
14269;BME280;7218;51.480;7.006;2022-08-04T11:23:28;100513.03;;;37.82;30.94
14269;BME280;7218;51.480;7.006;2022-08-04T11:25:59;100519.78;;;37.30;31.32
14269;BME280;7218;51.480;7.006;2022-08-04T11:28:37;100513.19;;;36.10;32.38
14269;BME280;7218;51.480;7.006;2022-08-04T11:31:11;100520.78;;;36.87;31.83
14269;BME280;7218;51.480;7.006;2022-08-04T11:33:46;100511.56;;;37.24;32.21
14269;BME280;7218;51.480;7.006;2022-08-04T11:36:19;100514.59;;;37.35;31.43
14269;BME280;7218;51.480;7.006;2022-08-04T11:38:54;100529.00;;;37.08;30.95
14269;BME280;7218;51.480;7.006;2022-08-04T11:41:33;100528.50;;;36.47;31.28
14269;BME280;7218;51.480;7.006;2022-08-04T11:44:03;100542.47;;;35.56;32.61
14269;BME280;7218;51.480;7.006;2022-08-04T11:46:38;100541.66;;;35.85;31.89
14269;BME280;7218;51.480;7.006;2022-08-04T11:49:10;100538.56;;;35.73;32.55
14269;BME280;7218;51.480;7.006;2022-08-04T11:51:41;100536.69;;;35.74;33.40
14269;BME280;7218;51.480;7.006;2022-08-04T11:54:11;100544.81;;;35.22;33.81
14269;BME280;7218;51.480;7.006;2022-08-04T11:56:38;100534.47;;;34.94;34.58
14269;BME280;7218;51.480;7.006;2022-08-04T11:59:05;100544.53;;;35.09;34.78
14269;BME280;7218;51.480;7.006;2022-08-04T12:01:37;100544.94;;;35.66;34.45
14269;BME280;7218;51.480;7.006;2022-08-04T12:04:16;100552.19;;;36.53;33.61
14269;BME280;7218;51.480;7.006;2022-08-04T12:06:47;100560.78;;;36.72;33.71
14269;BME280;7218;51.480;7.006;2022-08-04T12:09:24;100562.44;;;36.07;33.33
14269;BME280;7218;51.480;7.006;2022-08-04T12:12:01;100562.31;;;35.11;33.77
14269;BME280;7218;51.480;7.006;2022-08-04T12:14:39;100559.84;;;35.02;33.95
14269;BME280;7218;51.480;7.006;2022-08-04T12:17:10;100564.66;;;34.13;35.31
14269;BME280;7218;51.480;7.006;2022-08-04T12:19:43;100574.16;;;34.09;35.28
14269;BME280;7218;51.480;7.006;2022-08-04T12:22:22;100559.25;;;34.13;35.63
14269;BME280;7218;51.480;7.006;2022-08-04T12:24:53;100558.66;;;33.87;35.54
14269;BME280;7218;51.480;7.006;2022-08-04T12:27:26;100548.16;;;33.92;35.89
14269;BME280;7218;51.480;7.006;2022-08-04T12:29:55;100547.84;;;33.87;36.01
14269;BME280;7218;51.480;7.006;2022-08-04T12:32:23;100548.50;;;33.97;36.27
14269;BME280;7218;51.480;7.006;2022-08-04T12:35:02;100551.03;;;33.83;36.80
14269;BME280;7218;51.480;7.006;2022-08-04T12:37:45;100551.03;;;33.83;37.40
14269;BME280;7218;51.480;7.006;2022-08-04T12:40:17;100561.63;;;34.08;36.82
14269;BME280;7218;51.480;7.006;2022-08-04T12:42:52;100559.53;;;34.66;36.77
14269;BME280;7218;51.480;7.006;2022-08-04T12:45:22;100555.50;;;35.38;36.62
14269;BME280;7218;51.480;7.006;2022-08-04T12:47:49;100554.13;;;36.23;36.97
14269;BME280;7218;51.480;7.006;2022-08-04T12:50:20;100562.44;;;36.07;36.76
14269;BME280;7218;51.480;7.006;2022-08-04T12:52:50;100565.41;;;35.83;38.28
14269;BME280;7218;51.480;7.006;2022-08-04T12:55:21;100560.09;;;35.90;38.06
14269;BME280;7218;51.480;7.006;2022-08-04T12:57:49;100560.00;;;36.12;37.81
14269;BME280;7218;51.480;7.006;2022-08-04T13:00:24;100564.03;;;36.46;36.37
14269;BME280;7218;51.480;7.006;2022-08-04T13:02:51;100565.94;;;37.02;36.23
14269;BME280;7218;51.480;7.006;2022-08-04T13:05:20;100564.22;;;37.16;35.95
14269;BME280;7218;51.480;7.006;2022-08-04T13:07:49;100570.00;;;36.92;36.04
14269;BME280;7218;51.480;7.006;2022-08-04T13:10:21;100575.28;;;37.36;36.04
14269;BME280;7218;51.480;7.006;2022-08-04T13:12:52;100575.59;;;37.26;35.73
14269;BME280;7218;51.480;7.006;2022-08-04T13:15:21;100569.75;;;36.87;35.76
14269;BME280;7218;51.480;7.006;2022-08-04T13:17:52;100560.41;;;37.11;36.34
14269;BME280;7218;51.480;7.006;2022-08-04T13:20:26;100558.97;;;37.91;35.40
14269;BME280;7218;51.480;7.006;2022-08-04T13:22:59;100561.91;;;38.79;33.35
14269;BME280;7218;51.480;7.006;2022-08-04T13:25:28;100559.47;;;38.97;32.48
14269;BME280;7218;51.480;7.006;2022-08-04T13:27:55;100561.72;;;38.80;31.97
14269;BME280;7218;51.480;7.006;2022-08-04T13:30:23;100547.06;;;38.33;33.04
14269;BME280;7218;51.480;7.006;2022-08-04T13:32:54;100543.25;;;38.28;32.53
14269;BME280;7218;51.480;7.006;2022-08-04T13:35:21;100542.66;;;38.32;31.63
14269;BME280;7218;51.480;7.006;2022-08-04T13:37:50;100544.75;;;38.91;30.83
14269;BME280;7218;51.480;7.006;2022-08-04T13:40:20;100544.78;;;38.44;32.57
14269;BME280;7218;51.480;7.006;2022-08-04T13:42:48;100542.31;;;39.49;30.91
14269;BME280;7218;51.480;7.006;2022-08-04T13:45:19;100546.72;;;41.66;30.00
14269;BME280;7218;51.480;7.006;2022-08-04T13:47:47;100546.84;;;41.78;27.63
14269;BME280;7218;51.480;7.006;2022-08-04T13:50:17;100550.75;;;40.38;28.99